sensor_id;sensor_type;location;lat;lon;timestamp;P1;durP1;ratioP1;P2;durP2;ratioP2
18066;SDS011;9158;51.528;7.192;2022-09-20T00:00:14;4.07;;;3.00;;
18066;SDS011;9158;51.528;7.192;2022-09-20T00:00:46;6.05;;;3.17;;
18066;SDS011;9158;51.528;7.192;2022-09-20T00:01:18;4.88;;;2.70;;
18066;SDS011;9158;51.528;7.192;2022-09-20T00:01:51;8.02;;;3.35;;
18066;SDS011;9158;51.528;7.192;2022-09-20T00:02:22;8.50;;;3.40;;
18066;SDS011;9158;51.528;7.192;2022-09-20T00:02:53;8.25;;;3.90;;
18066;SDS011;9158;51.528;7.192;2022-09-20T00:03:25;5.90;;;3.40;;
18066;SDS011;9158;51.528;7.192;2022-09-20T00:03:56;9.35;;;3.45;;
18066;SDS011;9158;51.528;7.192;2022-09-20T00:04:29;9.38;;;3.70;;
18066;SDS011;9158;51.528;7.192;2022-09-20T00:05:01;5.15;;;3.08;;
18066;SDS011;9158;51.528;7.192;2022-09-20T00:05:34;8.35;;;2.85;;
18066;SDS011;9158;51.528;7.192;2022-09-20T00:06:07;6.63;;;3.35;;
18066;SDS011;9158;51.528;7.192;2022-09-20T00:06:41;5.20;;;3.13;;
18066;SDS011;9158;51.528;7.192;2022-09-20T00:07:12;6.03;;;3.45;;
18066;SDS011;9158;51.528;7.192;2022-09-20T00:07:43;7.55;;;3.03;;
18066;SDS011;9158;51.528;7.192;2022-09-20T00:08:15;3.65;;;2.72;;
18066;SDS011;9158;51.528;7.192;2022-09-20T00:08:46;8.88;;;3.00;;
18066;SDS011;9158;51.528;7.192;2022-09-20T00:09:18;4.15;;;2.78;;
18066;SDS011;9158;51.528;7.192;2022-09-20T00:09:50;8.25;;;3.22;;
18066;SDS011;9158;51.528;7.192;2022-09-20T00:10:21;6.35;;;4.00;;
18066;SDS011;9158;51.528;7.192;2022-09-20T00:10:56;4.78;;;3.05;;
18066;SDS011;9158;51.528;7.192;2022-09-20T00:11:31;5.03;;;2.92;;
18066;SDS011;9158;51.528;7.192;2022-09-20T00:12:04;7.80;;;3.10;;
18066;SDS011;9158;51.528;7.192;2022-09-20T00:12:36;7.65;;;3.50;;
18066;SDS011;9158;51.528;7.192;2022-09-20T00:13:08;5.80;;;3.30;;
18066;SDS011;9158;51.528;7.192;2022-09-20T00:13:41;6.22;;;3.40;;
18066;SDS011;9158;51.528;7.192;2022-09-20T00:14:13;11.77;;;3.65;;
18066;SDS011;9158;51.528;7.192;2022-09-20T00:14:45;5.88;;;3.22;;
18066;SDS011;9158;51.528;7.192;2022-09-20T00:15:16;4.65;;;3.05;;
18066;SDS011;9158;51.528;7.192;2022-09-20T00:15:47;5.28;;;3.38;;
18066;SDS011;9158;51.528;7.192;2022-09-20T00:16:19;5.95;;;3.20;;
18066;SDS011;9158;51.528;7.192;2022-09-20T00:16:53;4.00;;;3.25;;
18066;SDS011;9158;51.528;7.192;2022-09-20T00:17:24;8.18;;;3.60;;
18066;SDS011;9158;51.528;7.192;2022-09-20T00:17:55;6.22;;;3.30;;
18066;SDS011;9158;51.528;7.192;2022-09-20T00:18:27;10.38;;;3.75;;
18066;SDS011;9158;51.528;7.192;2022-09-20T00:18:59;5.65;;;3.60;;
18066;SDS011;9158;51.528;7.192;2022-09-20T00:19:33;5.97;;;3.05;;
18066;SDS011;9158;51.528;7.192;2022-09-20T00:20:05;7.30;;;2.88;;
18066;SDS011;9158;51.528;7.192;2022-09-20T00:20:42;6.00;;;3.15;;
18066;SDS011;9158;51.528;7.192;2022-09-20T00:21:15;4.82;;;3.17;;
18066;SDS011;9158;51.528;7.192;2022-09-20T00:21:48;4.82;;;3.20;;
18066;SDS011;9158;51.528;7.192;2022-09-20T00:22:19;10.57;;;3.70;;
18066;SDS011;9158;51.528;7.192;2022-09-20T00:22:50;7.60;;;3.45;;
18066;SDS011;9158;51.528;7.192;2022-09-20T00:23:22;8.48;;;3.15;;
18066;SDS011;9158;51.528;7.192;2022-09-20T00:23:53;5.43;;;3.10;;
18066;SDS011;9158;51.528;7.192;2022-09-20T00:24:26;5.55;;;3.50;;
18066;SDS011;9158;51.528;7.192;2022-09-20T00:24:58;10.27;;;3.83;;
18066;SDS011;9158;51.528;7.192;2022-09-20T00:25:29;7.78;;;3.10;;
18066;SDS011;9158;51.528;7.192;2022-09-20T00:26:03;12.98;;;3.70;;
18066;SDS011;9158;51.528;7.192;2022-09-20T00:26:34;6.90;;;3.85;;
18066;SDS011;9158;51.528;7.192;2022-09-20T00:27:06;4.80;;;2.90;;
18066;SDS011;9158;51.528;7.192;2022-09-20T00:27:37;8.27;;;5.57;;
18066;SDS011;9158;51.528;7.192;2022-09-20T00:28:08;5.25;;;2.90;;
18066;SDS011;9158;51.528;7.192;2022-09-20T00:28:40;6.47;;;2.88;;
18066;SDS011;9158;51.528;7.192;2022-09-20T00:29:13;5.63;;;3.28;;
18066;SDS011;9158;51.528;7.192;2022-09-20T00:29:44;8.18;;;3.50;;
18066;SDS011;9158;51.528;7.192;2022-09-20T00:30:16;6.30;;;2.88;;
18066;SDS011;9158;51.528;7.192;2022-09-20T00:30:47;6.35;;;2.85;;
18066;SDS011;9158;51.528;7.192;2022-09-20T00:31:18;8.98;;;3.50;;
18066;SDS011;9158;51.528;7.192;2022-09-20T00:31:50;3.75;;;3.00;;
18066;SDS011;9158;51.528;7.192;2022-09-20T00:32:21;10.50;;;3.10;;
18066;SDS011;9158;51.528;7.192;2022-09-20T00:32:52;4.67;;;3.30;;
18066;SDS011;9158;51.528;7.192;2022-09-20T00:33:23;4.57;;;2.70;;
18066;SDS011;9158;51.528;7.192;2022-09-20T00:34:16;5.20;;;3.22;;
18066;SDS011;9158;51.528;7.192;2022-09-20T00:35:06;8.48;;;3.50;;
18066;SDS011;9158;51.528;7.192;2022-09-20T00:35:42;8.65;;;3.17;;
18066;SDS011;9158;51.528;7.192;2022-09-20T00:36:14;4.80;;;3.38;;
18066;SDS011;9158;51.528;7.192;2022-09-20T00:36:45;5.57;;;3.20;;
18066;SDS011;9158;51.528;7.192;2022-09-20T00:37:16;6.10;;;3.00;;
18066;SDS011;9158;51.528;7.192;2022-09-20T00:37:48;5.15;;;3.38;;
18066;SDS011;9158;51.528;7.192;2022-09-20T00:38:19;3.70;;;2.95;;
18066;SDS011;9158;51.528;7.192;2022-09-20T00:38:53;6.57;;;3.00;;
18066;SDS011;9158;51.528;7.192;2022-09-20T00:39:25;6.82;;;3.13;;
18066;SDS011;9158;51.528;7.192;2022-09-20T00:39:56;6.80;;;3.50;;
18066;SDS011;9158;51.528;7.192;2022-09-20T00:40:27;5.63;;;2.70;;
18066;SDS011;9158;51.528;7.192;2022-09-20T00:40:59;5.68;;;2.28;;
18066;SDS011;9158;51.528;7.192;2022-09-20T00:41:30;5.67;;;3.37;;
18066;SDS011;9158;51.528;7.192;2022-09-20T00:42:02;5.78;;;3.65;;
18066;SDS011;9158;51.528;7.192;2022-09-20T00:42:34;6.70;;;4.03;;
18066;SDS011;9158;51.528;7.192;2022-09-20T00:43:05;6.38;;;4.32;;
18066;SDS011;9158;51.528;7.192;2022-09-20T00:43:37;5.35;;;4.38;;
18066;SDS011;9158;51.528;7.192;2022-09-20T00:45:15;7.15;;;2.70;;
18066;SDS011;9158;51.528;7.192;2022-09-20T00:45:51;5.90;;;2.83;;
18066;SDS011;9158;51.528;7.192;2022-09-20T00:46:23;4.10;;;2.70;;
18066;SDS011;9158;51.528;7.192;2022-09-20T00:47:03;8.98;;;3.38;;
18066;SDS011;9158;51.528;7.192;2022-09-20T00:47:39;6.57;;;3.03;;
18066;SDS011;9158;51.528;7.192;2022-09-20T00:48:14;3.20;;;2.90;;
18066;SDS011;9158;51.528;7.192;2022-09-20T00:48:54;5.05;;;2.90;;
18066;SDS011;9158;51.528;7.192;2022-09-20T00:49:28;5.78;;;2.78;;
18066;SDS011;9158;51.528;7.192;2022-09-20T00:50:02;8.85;;;3.05;;
18066;SDS011;9158;51.528;7.192;2022-09-20T00:50:44;5.90;;;2.78;;
18066;SDS011;9158;51.528;7.192;2022-09-20T00:51:22;10.13;;;3.33;;
18066;SDS011;9158;51.528;7.192;2022-09-20T00:51:59;7.70;;;3.10;;
18066;SDS011;9158;51.528;7.192;2022-09-20T00:52:31;6.65;;;3.53;;
18066;SDS011;9158;51.528;7.192;2022-09-20T00:53:04;8.20;;;3.20;;
18066;SDS011;9158;51.528;7.192;2022-09-20T00:53:41;4.38;;;2.60;;
18066;SDS011;9158;51.528;7.192;2022-09-20T00:54:14;9.13;;;3.97;;
18066;SDS011;9158;51.528;7.192;2022-09-20T00:54:47;5.35;;;2.70;;
18066;SDS011;9158;51.528;7.192;2022-09-20T00:55:19;7.68;;;3.70;;
18066;SDS011;9158;51.528;7.192;2022-09-20T00:55:52;7.97;;;3.45;;
18066;SDS011;9158;51.528;7.192;2022-09-20T00:56:28;6.18;;;3.38;;
18066;SDS011;9158;51.528;7.192;2022-09-20T00:57:02;4.78;;;3.40;;
18066;SDS011;9158;51.528;7.192;2022-09-20T00:57:34;6.80;;;2.83;;
18066;SDS011;9158;51.528;7.192;2022-09-20T00:58:07;5.18;;;3.85;;
18066;SDS011;9158;51.528;7.192;2022-09-20T00:58:40;5.82;;;3.42;;
18066;SDS011;9158;51.528;7.192;2022-09-20T00:59:16;5.13;;;2.60;;
18066;SDS011;9158;51.528;7.192;2022-09-20T00:59:49;5.53;;;3.90;;
18066;SDS011;9158;51.528;7.192;2022-09-20T01:00:22;5.38;;;3.38;;
18066;SDS011;9158;51.528;7.192;2022-09-20T01:00:55;4.85;;;3.20;;
18066;SDS011;9158;51.528;7.192;2022-09-20T01:01:27;5.03;;;3.13;;
18066;SDS011;9158;51.528;7.192;2022-09-20T01:02:02;8.95;;;4.13;;
18066;SDS011;9158;51.528;7.192;2022-09-20T01:02:39;7.53;;;3.65;;
18066;SDS011;9158;51.528;7.192;2022-09-20T01:03:12;6.70;;;3.63;;
18066;SDS011;9158;51.528;7.192;2022-09-20T01:03:47;6.35;;;3.55;;
18066;SDS011;9158;51.528;7.192;2022-09-20T01:04:19;4.18;;;3.00;;
18066;SDS011;9158;51.528;7.192;2022-09-20T01:04:53;8.35;;;3.22;;
18066;SDS011;9158;51.528;7.192;2022-09-20T01:05:27;7.22;;;3.25;;
18066;SDS011;9158;51.528;7.192;2022-09-20T01:06:00;8.30;;;3.63;;
18066;SDS011;9158;51.528;7.192;2022-09-20T01:06:33;8.82;;;3.30;;
18066;SDS011;9158;51.528;7.192;2022-09-20T01:07:06;6.45;;;3.28;;
18066;SDS011;9158;51.528;7.192;2022-09-20T01:07:39;9.13;;;3.08;;
18066;SDS011;9158;51.528;7.192;2022-09-20T01:08:11;5.22;;;2.75;;
18066;SDS011;9158;51.528;7.192;2022-09-20T01:08:44;6.57;;;3.10;;
18066;SDS011;9158;51.528;7.192;2022-09-20T01:09:19;3.40;;;2.90;;
18066;SDS011;9158;51.528;7.192;2022-09-20T01:09:50;7.93;;;3.38;;
18066;SDS011;9158;51.528;7.192;2022-09-20T01:10:22;6.78;;;2.80;;
18066;SDS011;9158;51.528;7.192;2022-09-20T01:10:53;7.38;;;3.35;;
18066;SDS011;9158;51.528;7.192;2022-09-20T01:11:25;10.48;;;4.07;;
18066;SDS011;9158;51.528;7.192;2022-09-20T01:11:56;5.63;;;3.50;;
18066;SDS011;9158;51.528;7.192;2022-09-20T01:12:32;5.35;;;2.95;;
18066;SDS011;9158;51.528;7.192;2022-09-20T01:13:04;7.32;;;4.40;;
18066;SDS011;9158;51.528;7.192;2022-09-20T01:13:35;8.38;;;3.33;;
18066;SDS011;9158;51.528;7.192;2022-09-20T01:14:07;3.70;;;2.78;;
18066;SDS011;9158;51.528;7.192;2022-09-20T01:14:38;7.38;;;4.25;;
18066;SDS011;9158;51.528;7.192;2022-09-20T01:15:12;4.45;;;3.22;;
18066;SDS011;9158;51.528;7.192;2022-09-20T01:15:45;5.25;;;3.13;;
18066;SDS011;9158;51.528;7.192;2022-09-20T01:16:18;5.45;;;3.22;;
18066;SDS011;9158;51.528;7.192;2022-09-20T01:16:51;6.07;;;3.83;;
18066;SDS011;9158;51.528;7.192;2022-09-20T01:17:25;5.13;;;3.33;;
18066;SDS011;9158;51.528;7.192;2022-09-20T01:17:59;5.43;;;3.60;;
18066;SDS011;9158;51.528;7.192;2022-09-20T01:18:32;8.45;;;3.50;;
18066;SDS011;9158;51.528;7.192;2022-09-20T01:19:19;5.95;;;3.88;;
18066;SDS011;9158;51.528;7.192;2022-09-20T01:20:07;4.93;;;3.10;;
18066;SDS011;9158;51.528;7.192;2022-09-20T01:20:46;4.80;;;3.03;;
18066;SDS011;9158;51.528;7.192;2022-09-20T01:21:19;7.93;;;3.28;;
18066;SDS011;9158;51.528;7.192;2022-09-20T01:21:50;6.65;;;3.28;;
18066;SDS011;9158;51.528;7.192;2022-09-20T01:22:24;8.15;;;3.50;;
18066;SDS011;9158;51.528;7.192;2022-09-20T01:23:57;13.07;;;3.92;;
18066;SDS011;9158;51.528;7.192;2022-09-20T01:24:34;8.18;;;4.18;;
18066;SDS011;9158;51.528;7.192;2022-09-20T01:25:13;10.48;;;4.30;;
18066;SDS011;9158;51.528;7.192;2022-09-20T01:26:53;9.95;;;4.72;;
18066;SDS011;9158;51.528;7.192;2022-09-20T01:27:40;11.30;;;3.92;;
18066;SDS011;9158;51.528;7.192;2022-09-20T01:28:13;9.00;;;4.10;;
18066;SDS011;9158;51.528;7.192;2022-09-20T01:28:46;6.72;;;3.95;;
18066;SDS011;9158;51.528;7.192;2022-09-20T01:29:24;7.03;;;4.15;;
18066;SDS011;9158;51.528;7.192;2022-09-20T01:30:11;10.23;;;5.15;;
18066;SDS011;9158;51.528;7.192;2022-09-20T01:30:46;8.93;;;4.15;;
18066;SDS011;9158;51.528;7.192;2022-09-20T01:31:23;12.82;;;5.60;;
18066;SDS011;9158;51.528;7.192;2022-09-20T01:31:58;16.60;;;5.85;;
18066;SDS011;9158;51.528;7.192;2022-09-20T01:32:35;11.70;;;5.20;;
18066;SDS011;9158;51.528;7.192;2022-09-20T01:33:15;7.47;;;4.80;;
18066;SDS011;9158;51.528;7.192;2022-09-20T01:33:56;8.63;;;5.05;;
18066;SDS011;9158;51.528;7.192;2022-09-20T01:34:30;10.55;;;5.22;;
18066;SDS011;9158;51.528;7.192;2022-09-20T01:35:04;11.82;;;4.95;;
18066;SDS011;9158;51.528;7.192;2022-09-20T01:35:38;8.23;;;5.35;;
18066;SDS011;9158;51.528;7.192;2022-09-20T01:36:15;11.38;;;6.00;;
18066;SDS011;9158;51.528;7.192;2022-09-20T01:36:51;8.20;;;4.90;;
18066;SDS011;9158;51.528;7.192;2022-09-20T01:37:30;7.60;;;4.28;;
18066;SDS011;9158;51.528;7.192;2022-09-20T01:38:18;9.68;;;4.95;;
18066;SDS011;9158;51.528;7.192;2022-09-20T01:39:01;10.65;;;6.40;;
18066;SDS011;9158;51.528;7.192;2022-09-20T01:39:41;21.65;;;7.03;;
18066;SDS011;9158;51.528;7.192;2022-09-20T01:40:23;15.65;;;6.13;;
18066;SDS011;9158;51.528;7.192;2022-09-20T01:41:00;10.75;;;6.00;;
18066;SDS011;9158;51.528;7.192;2022-09-20T01:41:37;8.02;;;5.20;;
18066;SDS011;9158;51.528;7.192;2022-09-20T01:42:14;12.98;;;5.65;;
18066;SDS011;9158;51.528;7.192;2022-09-20T01:42:49;13.38;;;6.70;;
18066;SDS011;9158;51.528;7.192;2022-09-20T01:43:29;15.30;;;7.72;;
18066;SDS011;9158;51.528;7.192;2022-09-20T01:44:06;15.82;;;6.80;;
18066;SDS011;9158;51.528;7.192;2022-09-20T01:44:46;19.38;;;7.40;;
18066;SDS011;9158;51.528;7.192;2022-09-20T01:45:26;14.68;;;6.15;;
18066;SDS011;9158;51.528;7.192;2022-09-20T01:45:58;14.93;;;6.57;;
18066;SDS011;9158;51.528;7.192;2022-09-20T01:46:37;13.18;;;5.95;;
18066;SDS011;9158;51.528;7.192;2022-09-20T01:47:13;8.90;;;5.85;;
18066;SDS011;9158;51.528;7.192;2022-09-20T01:47:55;12.38;;;5.97;;
18066;SDS011;9158;51.528;7.192;2022-09-20T01:48:38;13.18;;;4.53;;
18066;SDS011;9158;51.528;7.192;2022-09-20T01:49:15;9.60;;;4.93;;
18066;SDS011;9158;51.528;7.192;2022-09-20T01:50:02;17.40;;;5.60;;
18066;SDS011;9158;51.528;7.192;2022-09-20T01:50:45;14.77;;;5.80;;
18066;SDS011;9158;51.528;7.192;2022-09-20T01:53:15;11.23;;;4.70;;
18066;SDS011;9158;51.528;7.192;2022-09-20T01:54:12;9.63;;;5.32;;
18066;SDS011;9158;51.528;7.192;2022-09-20T01:55:17;14.50;;;5.47;;
18066;SDS011;9158;51.528;7.192;2022-09-20T01:56:25;14.15;;;5.15;;
18066;SDS011;9158;51.528;7.192;2022-09-20T01:57:15;11.60;;;5.22;;
18066;SDS011;9158;51.528;7.192;2022-09-20T01:58:20;8.93;;;4.20;;
18066;SDS011;9158;51.528;7.192;2022-09-20T01:59:22;10.77;;;5.40;;
18066;SDS011;9158;51.528;7.192;2022-09-20T02:00:22;7.97;;;6.28;;
18066;SDS011;9158;51.528;7.192;2022-09-20T02:00:57;8.57;;;4.50;;
18066;SDS011;9158;51.528;7.192;2022-09-20T02:04:03;9.38;;;5.10;;
18066;SDS011;9158;51.528;7.192;2022-09-20T02:04:58;12.82;;;5.50;;
18066;SDS011;9158;51.528;7.192;2022-09-20T02:06:06;10.00;;;4.57;;
18066;SDS011;9158;51.528;7.192;2022-09-20T02:06:59;8.88;;;4.30;;
18066;SDS011;9158;51.528;7.192;2022-09-20T02:07:50;8.38;;;5.22;;
18066;SDS011;9158;51.528;7.192;2022-09-20T02:08:43;10.88;;;5.55;;
18066;SDS011;9158;51.528;7.192;2022-09-20T02:09:44;7.60;;;4.72;;
18066;SDS011;9158;51.528;7.192;2022-09-20T02:10:46;12.05;;;4.93;;
18066;SDS011;9158;51.528;7.192;2022-09-20T02:11:35;12.55;;;6.07;;
18066;SDS011;9158;51.528;7.192;2022-09-20T02:12:29;12.50;;;6.18;;
18066;SDS011;9158;51.528;7.192;2022-09-20T02:13:16;9.93;;;5.60;;
18066;SDS011;9158;51.528;7.192;2022-09-20T02:14:02;11.27;;;5.32;;
18066;SDS011;9158;51.528;7.192;2022-09-20T02:14:42;10.23;;;5.00;;
18066;SDS011;9158;51.528;7.192;2022-09-20T02:15:28;9.73;;;4.60;;
18066;SDS011;9158;51.528;7.192;2022-09-20T02:16:32;11.60;;;4.95;;
18066;SDS011;9158;51.528;7.192;2022-09-20T02:17:14;12.27;;;5.35;;
18066;SDS011;9158;51.528;7.192;2022-09-20T02:17:54;9.38;;;6.85;;
18066;SDS011;9158;51.528;7.192;2022-09-20T02:18:41;14.90;;;7.97;;
18066;SDS011;9158;51.528;7.192;2022-09-20T02:19:45;12.90;;;7.85;;
18066;SDS011;9158;51.528;7.192;2022-09-20T02:20:31;8.95;;;4.80;;
18066;SDS011;9158;51.528;7.192;2022-09-20T02:21:08;16.00;;;5.50;;
18066;SDS011;9158;51.528;7.192;2022-09-20T02:21:46;11.13;;;5.90;;
18066;SDS011;9158;51.528;7.192;2022-09-20T02:23:20;7.38;;;4.88;;
18066;SDS011;9158;51.528;7.192;2022-09-20T02:24:05;9.20;;;4.22;;
18066;SDS011;9158;51.528;7.192;2022-09-20T02:24:49;7.75;;;4.78;;
18066;SDS011;9158;51.528;7.192;2022-09-20T02:26:23;9.73;;;4.88;;
18066;SDS011;9158;51.528;7.192;2022-09-20T02:27:06;5.10;;;4.47;;
18066;SDS011;9158;51.528;7.192;2022-09-20T02:27:44;10.63;;;5.35;;
18066;SDS011;9158;51.528;7.192;2022-09-20T02:28:30;12.48;;;5.63;;
18066;SDS011;9158;51.528;7.192;2022-09-20T02:29:23;12.40;;;5.15;;
18066;SDS011;9158;51.528;7.192;2022-09-20T02:30:07;8.85;;;4.88;;
18066;SDS011;9158;51.528;7.192;2022-09-20T02:30:46;13.85;;;5.65;;
18066;SDS011;9158;51.528;7.192;2022-09-20T02:31:47;11.82;;;6.10;;
18066;SDS011;9158;51.528;7.192;2022-09-20T02:32:38;13.77;;;8.18;;
18066;SDS011;9158;51.528;7.192;2022-09-20T02:33:32;12.38;;;7.47;;
18066;SDS011;9158;51.528;7.192;2022-09-20T02:34:19;8.05;;;5.15;;
18066;SDS011;9158;51.528;7.192;2022-09-20T02:35:09;8.57;;;5.50;;
18066;SDS011;9158;51.528;7.192;2022-09-20T02:35:51;11.05;;;4.75;;
18066;SDS011;9158;51.528;7.192;2022-09-20T02:36:39;11.02;;;5.82;;
18066;SDS011;9158;51.528;7.192;2022-09-20T02:37:21;14.85;;;7.00;;
18066;SDS011;9158;51.528;7.192;2022-09-20T02:38:16;12.10;;;5.72;;
18066;SDS011;9158;51.528;7.192;2022-09-20T02:38:59;13.93;;;7.32;;
18066;SDS011;9158;51.528;7.192;2022-09-20T02:39:41;20.05;;;9.27;;
18066;SDS011;9158;51.528;7.192;2022-09-20T02:40:22;20.20;;;8.85;;
18066;SDS011;9158;51.528;7.192;2022-09-20T02:41:12;20.80;;;9.82;;
18066;SDS011;9158;51.528;7.192;2022-09-20T02:42:03;20.92;;;8.40;;
18066;SDS011;9158;51.528;7.192;2022-09-20T02:42:42;17.95;;;9.52;;
18066;SDS011;9158;51.528;7.192;2022-09-20T02:43:20;20.77;;;10.02;;
18066;SDS011;9158;51.528;7.192;2022-09-20T02:44:01;18.48;;;8.88;;
18066;SDS011;9158;51.528;7.192;2022-09-20T02:44:47;16.00;;;7.82;;
18066;SDS011;9158;51.528;7.192;2022-09-20T02:45:29;17.77;;;9.05;;
18066;SDS011;9158;51.528;7.192;2022-09-20T02:46:08;21.63;;;9.23;;
18066;SDS011;9158;51.528;7.192;2022-09-20T02:46:44;14.18;;;8.35;;
18066;SDS011;9158;51.528;7.192;2022-09-20T02:47:26;16.35;;;8.75;;
18066;SDS011;9158;51.528;7.192;2022-09-20T02:48:02;18.38;;;7.65;;
18066;SDS011;9158;51.528;7.192;2022-09-20T02:48:35;13.57;;;7.57;;
18066;SDS011;9158;51.528;7.192;2022-09-20T02:49:13;13.20;;;6.95;;
18066;SDS011;9158;51.528;7.192;2022-09-20T02:49:58;8.38;;;5.03;;
18066;SDS011;9158;51.528;7.192;2022-09-20T02:50:44;14.32;;;6.90;;
18066;SDS011;9158;51.528;7.192;2022-09-20T02:51:24;17.30;;;7.32;;
18066;SDS011;9158;51.528;7.192;2022-09-20T02:52:06;14.40;;;5.95;;
18066;SDS011;9158;51.528;7.192;2022-09-20T02:52:43;14.30;;;6.05;;
18066;SDS011;9158;51.528;7.192;2022-09-20T02:53:25;10.60;;;6.57;;
18066;SDS011;9158;51.528;7.192;2022-09-20T02:54:07;11.70;;;6.78;;
18066;SDS011;9158;51.528;7.192;2022-09-20T02:54:51;14.55;;;6.80;;
18066;SDS011;9158;51.528;7.192;2022-09-20T02:55:30;11.20;;;6.03;;
18066;SDS011;9158;51.528;7.192;2022-09-20T02:56:12;13.80;;;6.10;;
18066;SDS011;9158;51.528;7.192;2022-09-20T02:56:50;15.15;;;8.32;;
18066;SDS011;9158;51.528;7.192;2022-09-20T02:57:31;18.95;;;8.05;;
18066;SDS011;9158;51.528;7.192;2022-09-20T02:58:18;17.08;;;7.95;;
18066;SDS011;9158;51.528;7.192;2022-09-20T02:59:02;11.77;;;6.45;;
18066;SDS011;9158;51.528;7.192;2022-09-20T02:59:43;13.32;;;6.25;;
18066;SDS011;9158;51.528;7.192;2022-09-20T03:00:22;10.75;;;5.35;;
18066;SDS011;9158;51.528;7.192;2022-09-20T03:00:58;13.60;;;6.57;;
18066;SDS011;9158;51.528;7.192;2022-09-20T03:01:37;14.93;;;7.25;;
18066;SDS011;9158;51.528;7.192;2022-09-20T03:02:18;13.43;;;6.07;;
18066;SDS011;9158;51.528;7.192;2022-09-20T03:02:59;21.33;;;8.48;;
18066;SDS011;9158;51.528;7.192;2022-09-20T03:03:39;17.27;;;9.48;;
18066;SDS011;9158;51.528;7.192;2022-09-20T03:04:20;21.65;;;9.38;;
18066;SDS011;9158;51.528;7.192;2022-09-20T03:05:05;14.50;;;9.38;;
18066;SDS011;9158;51.528;7.192;2022-09-20T03:05:45;15.95;;;9.05;;
18066;SDS011;9158;51.528;7.192;2022-09-20T03:06:24;17.63;;;9.55;;
18066;SDS011;9158;51.528;7.192;2022-09-20T03:07:02;22.85;;;11.55;;
18066;SDS011;9158;51.528;7.192;2022-09-20T03:07:42;30.52;;;13.23;;
18066;SDS011;9158;51.528;7.192;2022-09-20T03:08:28;25.08;;;14.93;;
18066;SDS011;9158;51.528;7.192;2022-09-20T03:09:05;28.48;;;12.55;;
18066;SDS011;9158;51.528;7.192;2022-09-20T03:09:45;26.60;;;13.60;;
18066;SDS011;9158;51.528;7.192;2022-09-20T03:10:24;29.02;;;14.95;;
18066;SDS011;9158;51.528;7.192;2022-09-20T03:11:06;25.08;;;13.70;;
18066;SDS011;9158;51.528;7.192;2022-09-20T03:11:47;22.33;;;12.43;;
18066;SDS011;9158;51.528;7.192;2022-09-20T03:12:31;23.48;;;11.60;;
18066;SDS011;9158;51.528;7.192;2022-09-20T03:13:16;23.50;;;11.52;;
18066;SDS011;9158;51.528;7.192;2022-09-20T03:13:55;20.52;;;10.00;;
18066;SDS011;9158;51.528;7.192;2022-09-20T03:14:39;19.17;;;10.00;;
18066;SDS011;9158;51.528;7.192;2022-09-20T03:15:19;22.58;;;11.05;;
18066;SDS011;9158;51.528;7.192;2022-09-20T03:16:00;17.77;;;10.18;;
18066;SDS011;9158;51.528;7.192;2022-09-20T03:16:39;19.80;;;11.55;;
18066;SDS011;9158;51.528;7.192;2022-09-20T03:17:21;18.42;;;8.23;;
18066;SDS011;9158;51.528;7.192;2022-09-20T03:18:05;18.70;;;10.80;;
18066;SDS011;9158;51.528;7.192;2022-09-20T03:18:41;23.90;;;11.50;;
18066;SDS011;9158;51.528;7.192;2022-09-20T03:19:24;22.67;;;11.25;;
18066;SDS011;9158;51.528;7.192;2022-09-20T03:20:10;14.48;;;9.00;;
18066;SDS011;9158;51.528;7.192;2022-09-20T03:20:52;16.95;;;9.93;;
18066;SDS011;9158;51.528;7.192;2022-09-20T03:21:33;13.60;;;7.30;;
18066;SDS011;9158;51.528;7.192;2022-09-20T03:22:17;10.15;;;5.95;;
18066;SDS011;9158;51.528;7.192;2022-09-20T03:22:57;7.35;;;4.15;;
18066;SDS011;9158;51.528;7.192;2022-09-20T03:23:40;8.38;;;6.13;;
18066;SDS011;9158;51.528;7.192;2022-09-20T03:24:23;7.60;;;5.18;;
18066;SDS011;9158;51.528;7.192;2022-09-20T03:25:06;6.97;;;4.72;;
18066;SDS011;9158;51.528;7.192;2022-09-20T03:26:01;7.97;;;4.07;;
18066;SDS011;9158;51.528;7.192;2022-09-20T03:26:43;10.82;;;5.05;;
18066;SDS011;9158;51.528;7.192;2022-09-20T03:27:27;8.30;;;5.07;;
18066;SDS011;9158;51.528;7.192;2022-09-20T03:28:05;7.50;;;4.93;;
18066;SDS011;9158;51.528;7.192;2022-09-20T03:28:52;6.32;;;4.93;;
18066;SDS011;9158;51.528;7.192;2022-09-20T03:29:46;11.63;;;6.05;;
18066;SDS011;9158;51.528;7.192;2022-09-20T03:30:31;10.82;;;5.25;;
18066;SDS011;9158;51.528;7.192;2022-09-20T03:31:17;7.63;;;3.95;;
18066;SDS011;9158;51.528;7.192;2022-09-20T03:32:02;6.57;;;3.88;;
18066;SDS011;9158;51.528;7.192;2022-09-20T03:32:49;9.07;;;5.10;;
18066;SDS011;9158;51.528;7.192;2022-09-20T03:33:30;9.25;;;4.95;;
18066;SDS011;9158;51.528;7.192;2022-09-20T03:34:11;14.02;;;6.03;;
18066;SDS011;9158;51.528;7.192;2022-09-20T03:34:54;5.97;;;4.88;;
18066;SDS011;9158;51.528;7.192;2022-09-20T03:35:38;14.27;;;5.03;;
18066;SDS011;9158;51.528;7.192;2022-09-20T03:36:24;12.30;;;7.45;;
18066;SDS011;9158;51.528;7.192;2022-09-20T03:37:10;10.45;;;5.35;;
18066;SDS011;9158;51.528;7.192;2022-09-20T03:37:55;9.55;;;5.82;;
18066;SDS011;9158;51.528;7.192;2022-09-20T03:38:38;8.93;;;6.93;;
18066;SDS011;9158;51.528;7.192;2022-09-20T03:39:36;11.95;;;7.05;;
18066;SDS011;9158;51.528;7.192;2022-09-20T03:41:39;8.40;;;4.60;;
18066;SDS011;9158;51.528;7.192;2022-09-20T03:42:24;8.48;;;4.90;;
18066;SDS011;9158;51.528;7.192;2022-09-20T03:42:58;7.25;;;3.90;;
18066;SDS011;9158;51.528;7.192;2022-09-20T03:43:39;5.15;;;4.43;;
18066;SDS011;9158;51.528;7.192;2022-09-20T03:44:30;5.90;;;3.85;;
18066;SDS011;9158;51.528;7.192;2022-09-20T03:45:30;5.10;;;4.07;;
18066;SDS011;9158;51.528;7.192;2022-09-20T03:46:15;7.63;;;4.25;;
18066;SDS011;9158;51.528;7.192;2022-09-20T03:46:47;6.70;;;4.00;;
18066;SDS011;9158;51.528;7.192;2022-09-20T03:47:32;8.00;;;4.00;;
18066;SDS011;9158;51.528;7.192;2022-09-20T03:48:33;8.88;;;4.32;;
18066;SDS011;9158;51.528;7.192;2022-09-20T03:49:39;8.02;;;4.50;;
18066;SDS011;9158;51.528;7.192;2022-09-20T03:51:27;6.30;;;4.93;;
18066;SDS011;9158;51.528;7.192;2022-09-20T03:52:00;8.93;;;6.95;;
18066;SDS011;9158;51.528;7.192;2022-09-20T03:52:40;15.45;;;6.57;;
18066;SDS011;9158;51.528;7.192;2022-09-20T03:53:46;10.50;;;4.82;;
18066;SDS011;9158;51.528;7.192;2022-09-20T03:54:41;6.40;;;3.95;;
18066;SDS011;9158;51.528;7.192;2022-09-20T03:56:33;5.95;;;4.38;;
18066;SDS011;9158;51.528;7.192;2022-09-20T03:57:31;7.50;;;4.65;;
18066;SDS011;9158;51.528;7.192;2022-09-20T03:58:16;8.98;;;4.72;;
18066;SDS011;9158;51.528;7.192;2022-09-20T03:59:04;12.65;;;6.20;;
18066;SDS011;9158;51.528;7.192;2022-09-20T04:00:03;16.58;;;8.68;;
18066;SDS011;9158;51.528;7.192;2022-09-20T04:00:47;15.52;;;7.90;;
18066;SDS011;9158;51.528;7.192;2022-09-20T04:01:35;25.65;;;11.93;;
18066;SDS011;9158;51.528;7.192;2022-09-20T04:02:29;19.65;;;11.40;;
18066;SDS011;9158;51.528;7.192;2022-09-20T04:03:32;23.95;;;13.95;;
18066;SDS011;9158;51.528;7.192;2022-09-20T04:04:10;15.70;;;8.80;;
18066;SDS011;9158;51.528;7.192;2022-09-20T04:04:45;12.48;;;6.78;;
18066;SDS011;9158;51.528;7.192;2022-09-20T04:05:21;9.30;;;5.78;;
18066;SDS011;9158;51.528;7.192;2022-09-20T04:06:04;11.23;;;5.90;;
18066;SDS011;9158;51.528;7.192;2022-09-20T04:06:50;10.40;;;5.90;;
18066;SDS011;9158;51.528;7.192;2022-09-20T04:07:31;14.02;;;6.00;;
18066;SDS011;9158;51.528;7.192;2022-09-20T04:08:22;14.15;;;8.43;;
18066;SDS011;9158;51.528;7.192;2022-09-20T04:09:13;25.17;;;10.73;;
18066;SDS011;9158;51.528;7.192;2022-09-20T04:10:00;23.60;;;13.60;;
18066;SDS011;9158;51.528;7.192;2022-09-20T04:10:51;19.30;;;10.80;;
18066;SDS011;9158;51.528;7.192;2022-09-20T04:11:30;19.15;;;9.32;;
18066;SDS011;9158;51.528;7.192;2022-09-20T04:12:06;13.98;;;6.40;;
18066;SDS011;9158;51.528;7.192;2022-09-20T04:12:54;9.32;;;5.05;;
18066;SDS011;9158;51.528;7.192;2022-09-20T04:13:39;9.88;;;6.15;;
18066;SDS011;9158;51.528;7.192;2022-09-20T04:14:17;13.65;;;5.72;;